Latest Weather Observations for Ngukurr AWS

IDD60801

Issued at 7:31 am CST Friday 9 December 2016 (issued every 30 minutes, with the page automatically refreshed every 10 minutes)

About weather observations | Map of weather stations | Latest weather observations for NT | Other Formats
Station Details ID: 014299 Name: NGUKURR AIRPORT Lat: -14.72 Lon: 134.75 Height: 14.46 m
Data from the previous 72 hours. | See also: Recent months at Ngukurr AWS
Date/Time
CST
Temp
°C
App
Temp
°C
Dew
Point
°C
Rel
Hum
%
Delta-T
°C
Wind Press
QNH
hPa
Press
MSL
hPa
Rain since
9am
mm
Dir  Spd
km/h
Gust
km/h
Spd
kts
Gust
kts
09/07:00am 28.4 31.9 21.9 68 4.4 ENE 6 7 3 4 1009.8 1009.7 0.0
09/06:30am 26.9 31.6 21.9 74 3.4 CALM 0 6 0 3 1009.3 1009.2 0.0
09/06:00am 25.3 28.7 21.0 77 2.8 S 4 6 2 3 1008.8 1008.7 0.0
09/05:30am 25.3 29.1 21.0 77 2.8 SSW 2 4 1 2 1008.1 1008.0 0.0
09/05:00am 26.2 30.3 20.8 72 3.6 CALM 0 0 0 0 1007.4 1007.3 0.0
09/04:30am 27.3 30.5 21.3 69 4.0 N 6 9 3 5 1007.1 1007.0 0.0
09/04:00am 27.7 30.4 21.3 68 4.3 N 9 13 5 7 1006.9 1006.8 0.0
09/03:30am 27.8 30.1 20.6 65 4.8 N 9 13 5 7 1006.7 1006.6 0.0
09/03:00am 28.0 29.2 20.0 61 5.2 N 13 19 7 10 1006.6 1006.5 0.0
09/02:30am 28.1 30.2 20.9 65 4.8 N 11 15 6 8 1006.8 1006.7 0.0
09/02:00am 28.0 31.4 22.0 70 4.0 NNE 7 9 4 5 1006.9 1006.8 0.0
09/01:30am 27.8 31.3 21.8 70 4.0 N 6 11 3 6 1007.1 1007.0 0.0
09/01:00am 28.5 32.5 22.0 68 4.4 ENE 4 6 2 3 1007.1 1007.0 0.0
09/12:30am 28.7 32.5 21.7 66 4.7 NNE 4 6 2 3 1007.4 1007.3 0.0
09/12:00am 29.0 32.7 21.5 64 5.0 ENE 4 7 2 4 1007.8 1007.7 0.0
 
Date/Time
CST
Temp
°C
App
Temp
°C
Dew
Point
°C
Rel
Hum
%
Delta-T
°C
Wind Press
QNH
hPa
Press
MSL
hPa
Rain since
9am
mm
Dir  Spd
km/h
Gust
km/h
Spd
kts
Gust
kts
08/11:30pm 29.4 32.7 21.4 62 5.4 E 6 9 3 5 1008.0 1007.9 0.0
08/11:00pm 29.5 33.1 21.2 61 5.5 ESE 4 6 2 3 1008.2 1008.1 0.0
08/10:30pm 29.7 32.7 20.8 58 5.9 SE 6 9 3 5 1008.1 1008.0 0.0
08/10:00pm 30.4 32.5 20.9 57 6.3 ESE 11 17 6 9 1007.8 1007.7 0.0
08/09:30pm 30.8 32.6 20.4 54 6.9 ESE 11 17 6 9 1007.4 1007.3 0.0
08/09:00pm 31.3 32.4 19.6 49 7.7 E 13 20 7 11 1006.9 1006.8 0.0
08/08:30pm 32.0 32.0 18.2 43 8.9 ESE 15 22 8 12 1006.3 1006.2 0.0
08/08:00pm 32.7 32.4 17.3 39 9.8 ESE 15 22 8 12 1005.8 1005.7 0.0
08/07:30pm 33.3 32.5 17.1 38 10.4 ESE 17 24 9 13 1005.6 1005.5 0.0
08/07:00pm 34.2 33.0 16.1 34 11.4 ESE 17 26 9 14 1005.2 1005.1 0.0
08/06:30pm 35.3 32.6 12.9 26 13.6 ESE 19 28 10 15 1004.7 1004.6 0.0
08/06:00pm 37.0 33.5 8.8 18 16.2 ESE 17 24 9 13 1004.3 1004.2 0.0
08/05:30pm 37.9 33.8 7.7 16 17.1 ESE 19 28 10 15 1004.1 1004.0 0.0
08/05:00pm 37.7 33.8 10.9 20 15.9 ESE 22 32 12 17 1003.8 1003.7 0.0
08/04:30pm 38.5 35.6 13.0 22 15.7 ESE 20 32 11 17 1003.5 1003.4 0.0
08/04:00pm 39.0 36.0 12.7 21 16.1 ESE 20 32 11 17 1003.4 1003.3 0.0
08/03:30pm 39.1 35.9 12.0 20 16.5 ESE 20 32 11 17 1003.6 1003.5 0.0
08/03:00pm 39.3 35.0 7.9 15 18.0 SE 20 32 11 17 1003.7 1003.6 0.0
08/02:30pm 39.8 34.6 7.3 14 18.5 ESE 24 35 13 19 1003.9 1003.8 0.0
08/02:00pm 39.5 36.2 11.6 19 16.8 ESE 20 41 11 22 1004.3 1004.2 0.0
08/01:30pm 39.2 35.6 10.5 18 17.1 E 20 33 11 18 1004.7 1004.6 0.0
08/01:00pm 39.4 36.6 11.5 19 16.8 ENE 17 28 9 15 1005.0 1004.9 0.0
08/12:30pm 38.3 37.2 14.2 24 15.0 ESE 13 24 7 13 1005.6 1005.5 0.0
08/12:00pm 37.1 36.0 14.4 26 14.2 E 13 22 7 12 1006.4 1006.3 0.0
08/11:30am 36.5 34.9 13.9 26 14.0 ENE 15 26 8 14 1006.8 1006.7 0.0
08/11:00am 36.6 34.6 14.0 26 14.0 E 17 28 9 15 1007.2 1007.1 0.0
08/10:30am 35.2 34.9 15.5 30 12.4 ENE 11 17 6 9 1007.6 1007.5 0.0
08/10:00am 34.3 34.4 16.6 34 11.3 ENE 11 20 6 11 1007.9 1007.8 0.0
08/09:30am 32.9 35.1 19.7 45 8.7 N 7 17 4 9 1008.1 1008.0 0.0
08/09:00am 32.3 35.8 21.8 54 7.1 NNW 6 13 3 7 1008.3 1008.2 0.0
08/08:30am 31.0 34.2 22.3 60 5.9 NNW 9 13 5 7 1008.5 1008.4 0.0
08/08:00am 30.1 33.4 22.5 63 5.2 NNW 9 17 5 9 1008.5 1008.4 0.0
08/07:30am 28.6 32.4 22.8 71 4.0 NNE 7 13 4 7 1008.2 1008.1 0.0
08/07:00am 27.7 32.0 22.6 74 3.5 NE 4 6 2 3 1008.2 1008.1 0.0
08/06:30am 26.5 31.2 22.6 79 2.6 SSE 2 4 1 2 1008.0 1007.9 0.0
08/06:00am 25.7 30.0 22.0 80 2.5 ESE 2 4 1 2 1007.7 1007.6 0.0
08/05:30am 25.8 29.3 21.9 79 2.6 SSE 6 6 3 3 1007.3 1007.2 0.0
08/05:00am 26.4 30.6 21.8 76 3.1 E 2 4 1 2 1007.0 1006.9 0.0
08/04:30am 26.6 31.1 21.6 74 3.3 CALM 0 0 0 0 1006.4 1006.3 0.0
08/04:00am 27.3 30.9 22.0 73 3.6 ENE 6 7 3 4 1006.2 1006.1 0.0
08/03:30am 27.5 31.1 21.3 69 4.1 ENE 4 6 2 3 1006.3 1006.2 0.0
08/03:00am 27.8 31.3 21.1 67 4.5 NNE 4 7 2 4 1006.4 1006.3 0.0
08/02:30am 28.0 31.0 20.8 65 4.8 NNE 6 7 3 4 1006.7 1006.6 0.0
08/02:00am 28.4 31.0 20.4 62 5.3 N 7 15 4 8 1006.8 1006.7 0.0
08/01:30am 28.6 30.9 20.6 62 5.3 NNE 9 13 5 7 1007.0 1006.9 0.0
08/01:00am 28.6 31.9 21.4 65 4.8 NNE 6 9 3 5 1007.2 1007.1 0.0
08/12:30am 29.1 32.3 21.3 62 5.2 NNE 6 11 3 6 1007.7 1007.6 0.0
08/12:00am 29.3 32.6 21.8 64 5.1 NE 7 15 4 8 1008.0 1007.9 0.0
 
Date/Time
CST
Temp
°C
App
Temp
°C
Dew
Point
°C
Rel
Hum
%
Delta-T
°C
Wind Press
QNH
hPa
Press
MSL
hPa
Rain since
9am
mm
Dir  Spd
km/h
Gust
km/h
Spd
kts
Gust
kts
07/11:30pm 29.4 32.9 22.1 65 4.9 NNE 7 15 4 8 1008.1 1008.0 0.0
07/11:00pm 29.5 33.1 22.0 64 5.1 NE 6 9 3 5 1008.3 1008.2 0.0
07/10:30pm 29.9 33.2 21.8 62 5.5 ENE 7 13 4 7 1008.4 1008.3 0.0
07/10:00pm 30.2 33.0 21.6 60 5.8 ENE 9 13 5 7 1008.4 1008.3 0.0
07/09:30pm 30.5 33.2 21.3 58 6.2 E 9 13 5 7 1008.1 1008.0 0.0
07/09:00pm 30.9 33.4 21.1 56 6.6 E 9 17 5 9 1007.8 1007.7 0.0
07/08:30pm 31.2 32.8 20.8 54 7.0 E 13 20 7 11 1007.4 1007.3 0.0
07/08:00pm 31.8 33.2 20.4 51 7.6 E 13 24 7 13 1007.1 1007.0 0.0
07/07:30pm 32.8 33.5 19.7 46 8.7 ESE 15 22 8 12 1006.7 1006.6 0.0
07/07:00pm 33.9 33.3 18.4 40 10.1 E 19 30 10 16 1006.2 1006.1 0.0
07/06:30pm 35.8 34.2 15.0 29 13.0 E 17 33 9 18 1005.6 1005.5 0.0
07/06:00pm 37.9 34.2 9.5 18 16.6 E 19 28 10 15 1005.1 1005.0 0.0
07/05:30pm 38.5 33.5 8.2 16 17.4 E 24 33 13 18 1004.7 1004.6 0.0
07/05:00pm 39.1 34.0 7.7 15 17.9 E 24 37 13 20 1004.5 1004.4 0.0
07/04:30pm 40.0 35.0 9.4 16 18.0 E 26 37 14 20 1004.4 1004.3 0.0
07/04:00pm 40.7 35.3 8.0 14 18.8 ESE 26 39 14 21 1004.4 1004.3 0.0
07/03:30pm 41.3 37.2 8.5 14 19.1 E 20 41 11 22 1004.5 1004.4 0.0
07/03:00pm 41.7 38.7 7.7 13 19.6 ENE 13 32 7 17 1004.5 1004.4 0.0
07/02:30pm 40.4 36.4 6.7 13 19.1 ENE 17 30 9 16 1005.0 1004.9 0.0
07/02:00pm 40.6 36.4 5.7 12 19.4 ENE 17 26 9 14 1005.4 1005.3 0.0
07/01:30pm 40.5 37.1 7.8 14 18.8 E 15 22 8 12 1005.7 1005.6 0.0
07/01:00pm 39.3 36.7 7.9 15 17.9 ENE 11 28 6 15 1006.3 1006.2 0.0
07/12:30pm 38.1 34.9 7.0 15 17.5 NNE 13 22 7 12 1007.0 1006.9 0.0
07/12:00pm 37.1 35.5 8.8 18 16.3 ENE 7 20 4 11 1007.7 1007.6 0.0
07/11:30am 36.8 36.0 11.6 22 15.1 SE 7 17 4 9 1008.3 1008.2 0.0
07/11:00am 36.3 34.8 10.5 21 15.1 ENE 9 19 5 10 1008.9 1008.8 0.0
07/10:30am 36.1 34.7 11.0 22 14.8 NE 9 20 5 11 1009.5 1009.4 0.0
07/10:00am 34.3 34.1 13.7 29 12.6 ENE 7 13 4 7 1010.0 1009.9 0.0
07/09:30am 33.0 33.3 14.6 33 11.3 NNE 6 20 3 11 1010.2 1010.1 0.0
07/09:00am 32.3 33.4 15.7 36 10.4 N 4 17 2 9 1010.3 1010.2 0.0
07/08:30am 31.5 34.5 20.8 53 7.2 NNE 6 13 3 7 1010.5 1010.4 0.0
07/08:00am 30.4 34.3 22.6 63 5.3 N 6 7 3 4 1010.3 1010.2 0.0
07/07:30am 28.8 33.3 23.7 74 3.5 NE 6 9 3 5 1010.1 1010.0 0.0
07/07:00am 27.4 32.5 24.1 82 2.3 E 4 6 2 3 1009.9 1009.8 0.0
07/06:30am 26.1 31.0 24.3 90 1.2 E 6 6 3 3 1009.4 1009.3 0.0
07/06:00am 25.4 30.7 24.4 94 0.7 NNW 4 7 2 4 1008.8 1008.7 0.0
07/05:30am 25.3 30.0 25.0 98 0.2 NNW 9 15 5 8 1008.3 1008.2 0.0
07/05:00am 24.7 29.5 24.2 97 0.3 NW 6 6 3 3 1008.7 1008.6 0.0
07/04:30am 24.7 30.5 24.0 96 0.5 CALM 0 0 0 0 1008.5 1008.4 0.0
07/04:00am 24.8 30.1 23.0 90 1.2 CALM 0 0 0 0 1008.5 1008.4 0.0
07/03:30am 25.2 30.1 23.1 88 1.4 SW 2 4 1 2 1008.3 1008.2 0.0
07/03:00am 25.9 30.6 23.4 86 1.7 NNW 4 6 2 3 1008.3 1008.2 0.0
07/02:30am 26.0 30.6 23.1 84 2.0 NNW 4 6 2 3 1008.4 1008.3 0.0
07/02:00am 26.2 30.6 23.5 85 1.8 NW 6 6 3 3 1008.7 1008.6 0.0
07/01:30am 27.1 32.5 23.3 80 2.6 CALM 0 2 0 1 1008.9 1008.8 0.0
07/01:00am 27.6 32.3 24.0 81 2.5 E 6 6 3 3 1009.1 1009.0 0.0
07/12:30am 26.9 31.4 22.9 79 2.7 ESE 4 6 2 3 1009.3 1009.2 0.0
07/12:00am 28.1 32.9 23.5 76 3.2 ENE 4 6 2 3 1009.4 1009.3 0.0
 
Date/Time
CST
Temp
°C
App
Temp
°C
Dew
Point
°C
Rel
Hum
%
Delta-T
°C
Wind Press
QNH
hPa
Press
MSL
hPa
Rain since
9am
mm
Dir  Spd
km/h
Gust
km/h
Spd
kts
Gust
kts
06/11:30pm 28.4 33.2 23.5 75 3.4 NE 4 6 2 3 1009.5 1009.4 0.0
06/11:00pm 28.8 33.2 23.5 73 3.6 E 6 9 3 5 1009.4 1009.3 0.0
06/10:30pm 29.1 33.4 23.3 71 4.0 ENE 6 9 3 5 1009.3 1009.2 0.0
06/10:00pm 29.5 33.2 23.2 69 4.3 ENE 9 15 5 8 1008.8 1008.7 0.0
06/09:30pm 29.9 33.4 22.9 66 4.8 ENE 9 13 5 7 1008.6 1008.5 0.0
06/09:00pm 30.3 33.3 22.7 64 5.2 E 11 15 6 8 1008.4 1008.3 0.0
06/08:30pm 30.7 33.5 22.3 61 5.7 E 11 15 6 8 1008.2 1008.1 0.0
06/08:00pm 31.3 33.2 22.0 57 6.3 E 15 24 8 13 1007.8 1007.7 0.0
06/07:30pm 32.0 34.2 21.8 54 6.9 ESE 13 20 7 11 1007.5 1007.4 0.0
06/07:00pm 33.0 34.0 20.2 47 8.5 ESE 15 26 8 14 1007.0 1006.9 0.0
06/06:30pm 34.3 34.2 18.8 40 10.2 E 17 26 9 14 1006.6 1006.5 0.0
06/06:00pm 35.3 33.7 17.5 34 11.5 E 22 30 12 16 1006.3 1006.2 0.0
06/05:30pm 36.3 34.5 17.9 33 12.0 ESE 24 35 13 19 1006.0 1005.9 0.0
06/05:00pm 37.4 35.4 17.4 30 13.0 ESE 24 37 13 20 1005.8 1005.7 0.0
06/04:30pm 38.7 36.9 16.9 27 14.1 E 22 37 12 20 1005.5 1005.4 0.0
06/04:00pm 39.0 36.7 16.6 27 14.4 E 24 35 13 19 1005.4 1005.3 0.0
06/03:30pm 38.5 35.3 16.2 27 14.3 E 28 41 15 22 1005.6 1005.5 0.0
06/03:00pm 39.2 36.6 16.8 27 14.5 E 26 37 14 20 1005.9 1005.8 0.0
06/02:30pm 38.8 37.0 17.0 27 14.2 E 22 39 12 21 1006.2 1006.1 0.0
06/02:00pm 40.6 38.9 14.7 21 16.4 ESE 17 33 9 18 1006.4 1006.3 0.0
06/01:30pm 39.7 38.5 14.0 22 16.1 ENE 13 26 7 14 1007.0 1006.9 0.0
06/01:00pm 38.9 36.4 14.0 23 15.5 ENE 20 32 11 17 1007.5 1007.4 0.0
06/12:30pm 38.5 36.9 15.0 25 14.8 ENE 17 32 9 17 1008.1 1008.0 0.0
06/12:00pm 38.3 36.8 14.2 24 15.0 ENE 15 26 8 14 1008.7 1008.6 0.0
06/11:30am 38.4 37.1 13.6 23 15.3 NE 13 24 7 13 1009.3 1009.2 0.0
06/11:00am 36.3 35.8 13.7 25 13.9 E 9 17 5 9 1010.0 1009.9 0.0
06/10:30am 35.0 35.4 16.3 32 11.9 E 9 17 5 9 1010.6 1010.5 0.0
06/10:00am 34.4 36.4 18.8 39 10.2 E 6 13 3 7 1011.1 1011.0 0.0
06/09:30am 33.5 35.1 19.2 43 9.4 E 9 15 5 8 1011.4 1011.3 0.0
06/09:00am 32.3 34.8 19.9 48 8.2 ENE 6 11 3 6 1011.6 1011.5 0.0
06/08:30am 30.9 33.9 20.8 55 6.7 N 6 9 3 5 1011.6 1011.5 0.0
06/08:00am 30.7 34.6 22.6 62 5.5 NNE 6 9 3 5 1011.7 1011.6 0.0

Other Formats:

Comma delimited format used in spreadsheet applications
http://www.bom.gov.au/fwo/IDD60801/IDD60801.94106.axf

JavaScript Object Notation format (JSON) in row-major order
http://www.bom.gov.au/fwo/IDD60801/IDD60801.94106.json